Time;durP1;ratioP1;P1;durP2;ratioP2;P2;SDS_P1;SDS_P2;PMS_P1;PMS_P2;Temp;Humidity;BMP_temperature;BMP_pressure;BME280_temperature;BME280_humidity;BME280_pressure;Samples;Min_cycle;Max_cycle;Signal;HPM_P1;HPM_P2
2022/11/05 00:10:03;;;;;;;17.05;12.95;;;6.90;99.90;;;;;;5027792;28;20467;-58
2022/11/05 00:17:58;;;;;;;19.85;12.23;;;6.80;99.90;;;;;;5026675;28;20035;-59
2022/11/05 00:20:24;;;;;;;16.20;12.73;;;6.80;99.90;;;;;;5027509;28;20878;-59
2022/11/05 00:25:34;;;;;;;21.70;15.23;;;6.70;99.90;;;;;;5026843;28;20032;-59
2022/11/05 00:28:01;;;;;;;22.25;14.60;;;6.70;99.90;;;;;;5027132;28;20037;-58
2022/11/05 00:30:27;;;;;;;21.90;14.45;;;6.70;99.90;;;;;;5026802;28;20026;-59
2022/11/05 00:32:58;;;;;;;24.77;14.23;;;6.70;99.90;;;;;;5027357;28;20056;-58
2022/11/05 00:35:24;;;;;;;20.40;14.05;;;6.70;99.90;;;;;;5026404;28;20036;-59
2022/11/05 00:37:52;;;;;;;18.23;13.38;;;6.70;99.90;;;;;;5026794;28;20025;-58
2022/11/05 00:40:18;;;;;;;26.38;12.60;;;6.70;99.90;;;;;;5024146;28;20171;-58
2022/11/05 00:45:29;;;;;;;17.13;12.32;;;6.80;99.90;;;;;;5026089;28;20082;-59
2022/11/05 00:50:39;;;;;;;12.35;11.05;;;6.80;99.90;;;;;;5025265;28;20128;-59
2022/11/05 00:53:06;;;;;;;14.52;11.25;;;6.90;99.90;;;;;;5026465;28;20037;-58
2022/11/05 00:55:38;;;;;;;11.52;9.65;;;6.90;99.90;;;;;;5026083;28;20033;-59
2022/11/05 00:58:07;;;;;;;10.27;9.38;;;6.80;99.90;;;;;;5027049;28;20061;-58
2022/11/05 01:00:35;;;;;;;16.75;9.70;;;6.80;99.90;;;;;;5026904;28;20519;-59
2022/11/05 01:03:03;;;;;;;12.13;10.75;;;6.80;99.90;;;;;;5026639;28;20520;-58
2022/11/05 01:05:30;;;;;;;12.80;10.02;;;6.80;99.90;;;;;;5023364;28;20028;-59
2022/11/05 01:07:56;;;;;;;13.20;9.65;;;6.80;99.90;;;;;;5022965;28;20576;-60
2022/11/05 01:10:22;;;;;;;11.13;9.88;;;6.80;99.90;;;;;;5026548;28;20059;-58
2022/11/05 01:12:48;;;;;;;14.30;10.98;;;6.80;99.90;;;;;;5026563;28;20482;-58
2022/11/05 01:15:14;;;;;;;12.10;10.65;;;6.80;99.90;;;;;;5025667;28;20044;-58
2022/11/05 01:17:40;;;;;;;12.13;9.63;;;6.90;99.90;;;;;;5026232;28;20032;-59
2022/11/05 01:20:06;;;;;;;10.05;8.85;;;6.90;99.90;;;;;;5026774;28;20034;-59
2022/11/05 01:22:31;;;;;;;10.75;8.85;;;6.90;99.90;;;;;;5026923;28;20029;-59
2022/11/05 01:24:57;;;;;;;8.90;8.05;;;6.90;99.90;;;;;;5027002;28;20061;-60
2022/11/05 01:27:22;;;;;;;15.27;8.65;;;6.90;99.90;;;;;;5026716;28;20029;-59
2022/11/05 01:29:48;;;;;;;16.52;8.77;;;6.90;99.90;;;;;;5026595;28;20103;-59
2022/11/05 01:32:14;;;;;;;9.95;8.60;;;6.80;99.90;;;;;;5027438;28;20378;-59
2022/11/05 01:34:39;;;;;;;9.80;8.82;;;6.80;99.90;;;;;;5026691;28;20041;-58
2022/11/05 01:37:05;;;;;;;9.13;8.32;;;6.80;99.90;;;;;;5026903;28;20405;-58
2022/11/05 01:39:30;;;;;;;9.48;8.45;;;6.80;99.90;;;;;;5026591;28;20022;-60
2022/11/05 01:41:57;;;;;;;9.32;8.48;;;6.80;99.90;;;;;;5025237;28;20159;-58
2022/11/05 01:44:57;;;;;;;9.73;8.80;;;6.80;99.90;;;;;;5027206;28;20026;-59
2022/11/05 01:47:28;;;;;;;10.45;9.30;;;6.80;99.90;;;;;;5023682;28;20276;-60
2022/11/05 01:49:55;;;;;;;14.55;12.88;;;6.90;99.90;;;;;;5026427;28;20524;-59
2022/11/05 01:52:22;;;;;;;90.78;47.83;;;6.90;99.90;;;;;;5025751;28;20037;-59
2022/11/05 01:54:48;;;;;;;101.60;47.95;;;6.90;99.90;;;;;;5022223;28;20038;-59
2022/11/05 01:57:14;;;;;;;91.80;47.03;;;6.90;99.90;;;;;;5026320;28;20403;-59
2022/11/05 01:59:49;;;;;;;70.32;34.63;;;6.90;99.90;;;;;;5026303;28;20444;-58
2022/11/05 02:02:16;;;;;;;24.90;17.08;;;7.00;99.90;;;;;;5023818;28;20132;-59
2022/11/05 02:04:46;;;;;;;18.33;12.35;;;7.00;99.90;;;;;;5023333;28;20110;-59
2022/11/05 02:07:12;;;;;;;14.27;10.70;;;7.00;99.90;;;;;;5024050;28;20038;-59
2022/11/05 02:10:03;;;;;;;11.40;9.88;;;7.10;99.90;;;;;;5025660;28;20575;-60
2022/11/05 02:12:30;;;;;;;20.48;17.73;;;7.10;99.90;;;;;;5024099;28;20022;-60
2022/11/05 02:14:56;;;;;;;11.10;9.80;;;7.10;99.90;;;;;;5026238;28;20025;-59
2022/11/05 02:17:31;;;;;;;16.40;14.55;;;7.20;99.90;;;;;;5022029;28;20743;-58
2022/11/05 02:20:12;;;;;;;14.02;12.73;;;7.20;99.90;;;;;;5027212;28;20037;-58
2022/11/05 02:23:04;;;;;;;18.65;17.17;;;7.20;99.90;;;;;;5029282;28;20531;-58
2022/11/05 02:26:02;;;;;;;22.25;20.05;;;7.10;99.90;;;;;;5029481;28;20037;-59
2022/11/05 02:28:55;;;;;;;22.15;16.75;;;7.10;99.90;;;;;;5028882;28;20112;-59
2022/11/05 02:31:26;;;;;;;14.68;11.85;;;7.10;99.90;;;;;;5013469;28;20036;-59
2022/11/05 02:34:44;;;;;;;15.13;12.20;;;7.20;99.90;;;;;;5029091;28;20034;-59
2022/11/05 02:37:21;;;;;;;17.98;13.10;;;7.30;99.90;;;;;;5025588;28;20393;-59
2022/11/05 02:40:07;;;;;;;12.73;11.50;;;7.30;99.90;;;;;;5028915;28;20540;-59
2022/11/05 02:43:00;;;;;;;12.85;11.65;;;7.30;99.90;;;;;;5029248;28;20040;-58
2022/11/05 02:45:28;;;;;;;13.35;12.02;;;7.30;99.90;;;;;;5029248;28;20022;-58
2022/11/05 02:47:57;;;;;;;11.55;10.40;;;7.20;99.90;;;;;;5028415;28;20026;-60
2022/11/05 02:50:34;;;;;;;11.27;10.15;;;7.20;99.90;;;;;;5029047;28;20030;-59
2022/11/05 02:53:07;;;;;;;12.80;11.40;;;7.20;99.90;;;;;;5029403;28;20069;-59
2022/11/05 02:55:45;;;;;;;12.20;10.95;;;7.20;99.90;;;;;;5027777;28;20034;-59
2022/11/05 02:58:11;;;;;;;15.80;11.20;;;7.20;99.90;;;;;;5029331;28;20061;-59
2022/11/05 03:00:53;;;;;;;16.40;9.95;;;7.20;99.90;;;;;;5029476;28;20064;-58
2022/11/05 03:03:22;;;;;;;11.73;9.43;;;7.20;99.90;;;;;;5028722;28;20025;-59
2022/11/05 03:06:16;;;;;;;9.68;8.52;;;7.20;99.90;;;;;;5029119;28;20026;-60
2022/11/05 03:09:15;;;;;;;10.65;9.55;;;7.20;99.90;;;;;;5029385;28;20414;-58
2022/11/05 03:11:52;;;;;;;10.27;8.50;;;7.10;99.90;;;;;;5029501;28;20068;-60
2022/11/05 03:14:28;;;;;;;12.15;9.57;;;6.90;99.90;;;;;;5027686;28;20037;-59
2022/11/05 03:17:32;;;;;;;11.68;9.30;;;6.90;99.90;;;;;;5029135;28;20045;-59
2022/11/05 03:20:04;;;;;;;13.07;9.50;;;6.90;99.90;;;;;;4994263;28;20064;-58
2022/11/05 03:22:36;;;;;;;13.98;10.32;;;6.80;99.90;;;;;;5028987;28;20037;-58
2022/11/05 03:25:07;;;;;;;10.85;9.43;;;6.90;99.90;;;;;;5028887;28;20030;-59
2022/11/05 03:27:38;;;;;;;12.27;10.30;;;6.80;99.90;;;;;;5028658;28;20513;-59
2022/11/05 03:30:09;;;;;;;10.13;9.23;;;6.80;99.90;;;;;;5027990;28;20144;-59
2022/11/05 03:32:40;;;;;;;15.20;11.32;;;6.80;99.90;;;;;;5027403;28;20029;-58
2022/11/05 03:35:20;;;;;;;13.93;10.80;;;6.80;99.90;;;;;;5028060;28;20520;-59
2022/11/05 03:37:47;;;;;;;11.93;10.00;;;6.80;99.90;;;;;;5025956;28;20142;-58
2022/11/05 03:40:17;;;;;;;19.35;12.57;;;6.80;99.90;;;;;;5028485;28;20057;-59
2022/11/05 03:42:48;;;;;;;13.27;11.32;;;6.90;99.90;;;;;;5027411;28;20026;-58
2022/11/05 03:45:19;;;;;;;17.05;11.15;;;6.90;99.90;;;;;;5027753;28;20026;-59
2022/11/05 03:47:47;;;;;;;11.73;10.52;;;6.90;99.90;;;;;;5027755;28;20037;-59
2022/11/05 03:50:42;;;;;;;17.00;13.35;;;6.90;99.90;;;;;;5028995;28;20158;-58
2022/11/05 03:53:31;;;;;;;20.27;15.27;;;7.00;99.90;;;;;;5027697;28;20571;-58
2022/11/05 03:56:09;;;;;;;15.70;14.32;;;7.00;99.90;;;;;;5027711;28;20109;-59
2022/11/05 03:58:36;;;;;;;18.08;13.02;;;7.10;99.90;;;;;;5026755;28;20067;-58
2022/11/05 04:01:04;;;;;;;16.30;14.70;;;7.10;99.90;;;;;;5028010;28;20026;-60
2022/11/05 04:03:35;;;;;;;15.38;13.73;;;7.10;99.90;;;;;;5028481;28;20035;-58
2022/11/05 04:14:14;;;;;;;55.55;25.10;;;7.10;99.90;;;;;;5028089;28;20040;-59
2022/11/05 04:24:53;;;;;;;15.48;12.77;;;7.20;99.90;;;;;;5026014;28;20040;-58
2022/11/05 04:27:18;;;;;;;14.10;12.73;;;7.20;99.90;;;;;;5026389;28;20557;-58
2022/11/05 04:32:28;;;;;;;15.15;12.82;;;7.20;99.90;;;;;;5027621;28;20076;-59
2022/11/05 04:34:53;;;;;;;19.83;14.23;;;7.20;99.90;;;;;;5027207;28;20061;-59
2022/11/05 04:37:19;;;;;;;19.15;12.20;;;7.30;99.90;;;;;;5026284;28;20607;-59
2022/11/05 04:39:45;;;;;;;14.35;11.70;;;7.20;99.90;;;;;;5024944;28;20036;-59
2022/11/05 04:42:10;;;;;;;64.80;24.75;;;7.20;99.90;;;;;;5026805;28;20038;-59
2022/11/05 04:44:36;;;;;;;88.25;31.92;;;7.20;99.90;;;;;;5027903;28;20024;-58
2022/11/05 04:47:02;;;;;;;80.85;29.33;;;7.20;99.90;;;;;;5026055;28;20095;-59
2022/11/05 04:49:27;;;;;;;32.60;16.77;;;7.20;99.90;;;;;;5027453;28;20029;-59
2022/11/05 04:51:53;;;;;;;19.42;12.15;;;7.20;99.90;;;;;;5027391;28;20057;-59
2022/11/05 04:54:18;;;;;;;12.65;10.63;;;7.20;99.90;;;;;;5027434;28;20104;-59
2022/11/05 04:56:44;;;;;;;13.25;10.70;;;7.10;99.90;;;;;;5028050;28;20025;-59
2022/11/05 04:59:09;;;;;;;24.70;9.27;;;7.10;99.90;;;;;;5027306;28;20448;-59
2022/11/05 05:01:35;;;;;;;15.00;9.65;;;7.00;99.90;;;;;;5027600;28;20107;-58
2022/11/05 05:04:01;;;;;;;13.73;8.90;;;7.00;99.90;;;;;;5026788;28;20037;-58
2022/11/05 05:06:26;;;;;;;10.10;9.10;;;7.00;99.90;;;;;;5027141;28;20030;-58
2022/11/05 05:08:52;;;;;;;12.68;9.55;;;6.90;99.90;;;;;;5027134;28;20036;-60
2022/11/05 05:11:20;;;;;;;15.45;9.50;;;6.90;99.90;;;;;;5027450;28;20046;-59
2022/11/05 05:13:47;;;;;;;12.50;9.20;;;6.90;99.90;;;;;;5027036;28;20136;-59
2022/11/05 05:16:24;;;;;;;14.93;10.52;;;6.90;99.90;;;;;;5026166;28;20032;-59
2022/11/05 05:18:50;;;;;;;12.15;10.95;;;6.90;99.90;;;;;;5026583;28;20025;-58
2022/11/05 05:24:19;;;;;;;12.18;10.98;;;6.90;99.90;;;;;;5007353;28;20021;-58
2022/11/05 05:26:47;;;;;;;12.48;10.90;;;6.90;99.90;;;;;;5027030;28;20029;-58
2022/11/05 05:29:13;;;;;;;13.80;10.93;;;6.90;99.90;;;;;;5025827;28;20026;-59
2022/11/05 05:31:39;;;;;;;16.15;11.73;;;6.80;99.90;;;;;;5027020;28;20030;-59
2022/11/05 05:34:06;;;;;;;16.92;11.95;;;6.80;99.90;;;;;;5026633;28;20124;-59
2022/11/05 05:36:32;;;;;;;12.75;11.18;;;6.80;99.90;;;;;;5026670;28;20079;-57
2022/11/05 05:38:58;;;;;;;13.75;11.88;;;6.80;99.90;;;;;;5026502;28;20034;-59
2022/11/05 05:41:24;;;;;;;13.77;12.30;;;6.70;99.90;;;;;;5026011;28;20137;-58
2022/11/05 05:43:49;;;;;;;13.27;11.35;;;6.80;99.90;;;;;;5026418;28;20045;-58
2022/11/05 05:46:16;;;;;;;13.07;11.57;;;6.80;99.90;;;;;;5026583;28;20034;-60
2022/11/05 05:48:46;;;;;;;18.02;11.50;;;6.80;99.90;;;;;;5027008;28;20049;-59
2022/11/05 05:51:12;;;;;;;18.48;11.45;;;6.70;99.90;;;;;;5025765;28;20041;-60
2022/11/05 05:53:38;;;;;;;27.52;12.13;;;6.70;99.90;;;;;;5029099;28;20029;-59
2022/11/05 05:56:04;;;;;;;11.98;10.70;;;6.70;99.90;;;;;;5029753;28;20061;-58
2022/11/05 05:58:35;;;;;;;12.05;10.82;;;6.70;99.90;;;;;;5030797;28;20044;-59
2022/11/05 06:01:04;;;;;;;12.13;10.93;;;6.70;99.90;;;;;;5030154;28;20044;-58
2022/11/05 06:03:29;;;;;;;13.05;11.88;;;6.70;99.90;;;;;;5029597;28;20033;-58
2022/11/05 06:06:04;;;;;;;15.05;11.35;;;6.70;99.90;;;;;;5029225;28;20021;-58
2022/11/05 06:08:30;;;;;;;14.95;10.93;;;6.70;99.90;;;;;;5030748;28;20108;-59
2022/11/05 06:10:56;;;;;;;12.73;11.43;;;6.80;99.90;;;;;;5030666;28;20072;-59
2022/11/05 06:13:22;;;;;;;12.93;11.65;;;6.80;99.90;;;;;;5028155;28;20021;-58
2022/11/05 06:15:48;;;;;;;12.45;11.35;;;6.80;99.90;;;;;;5029762;28;20021;-59
2022/11/05 06:18:13;;;;;;;16.25;10.48;;;6.80;99.90;;;;;;5029974;28;20121;-58
2022/11/05 06:20:39;;;;;;;20.77;11.88;;;6.80;99.90;;;;;;5030426;28;20117;-59
2022/11/05 06:23:05;;;;;;;12.18;9.88;;;6.90;99.90;;;;;;5030048;28;20486;-59
2022/11/05 06:25:31;;;;;;;12.27;11.02;;;6.90;99.90;;;;;;5030049;28;20474;-59
2022/11/05 06:27:57;;;;;;;12.68;11.38;;;6.90;99.90;;;;;;5033110;28;20903;-58
2022/11/05 06:30:22;;;;;;;11.85;10.23;;;7.00;99.90;;;;;;5029709;28;20029;-58
2022/11/05 06:32:48;;;;;;;11.77;10.65;;;7.10;99.90;;;;;;5030444;28;20774;-59
2022/11/05 06:35:14;;;;;;;15.50;10.77;;;7.10;99.90;;;;;;5030088;28;20104;-59
2022/11/05 06:37:40;;;;;;;13.43;12.13;;;7.20;99.90;;;;;;5028656;28;20029;-59
2022/11/05 06:40:06;;;;;;;20.73;13.02;;;7.20;99.90;;;;;;5029719;28;20056;-58
2022/11/05 06:42:32;;;;;;;13.63;10.98;;;7.30;99.90;;;;;;5029518;28;20548;-58
2022/11/05 06:44:58;;;;;;;12.40;11.10;;;7.30;99.90;;;;;;5028540;28;20041;-59
2022/11/05 06:47:23;;;;;;;11.85;10.65;;;7.30;99.90;;;;;;5028946;28;20025;-58
2022/11/05 06:49:49;;;;;;;13.30;10.05;;;7.40;99.90;;;;;;5029453;28;20064;-58
2022/11/05 06:52:15;;;;;;;11.98;10.60;;;7.40;99.90;;;;;;5028583;28;20038;-58
2022/11/05 06:54:42;;;;;;;13.95;10.75;;;7.50;99.90;;;;;;5029203;28;20033;-60
2022/11/05 06:57:09;;;;;;;14.48;9.95;;;7.50;99.90;;;;;;5027769;28;20056;-60
2022/11/05 06:59:36;;;;;;;10.02;9.02;;;7.50;99.90;;;;;;5029850;28;20484;-59
2022/11/05 07:02:02;;;;;;;10.68;9.57;;;7.50;99.90;;;;;;5029597;28;20429;-58
2022/11/05 07:04:28;;;;;;;10.40;8.90;;;7.50;99.90;;;;;;5028268;28;20022;-59
2022/11/05 07:06:53;;;;;;;13.50;9.75;;;7.60;99.90;;;;;;5029347;28;20040;-59
2022/11/05 07:09:19;;;;;;;14.57;8.65;;;7.60;99.90;;;;;;5029308;28;20017;-58
2022/11/05 07:11:44;;;;;;;11.10;8.63;;;7.60;99.90;;;;;;5028994;28;20029;-58
2022/11/05 07:14:10;;;;;;;8.80;7.90;;;7.60;99.90;;;;;;5028469;28;20021;-58
2022/11/05 07:16:35;;;;;;;9.65;8.07;;;7.70;99.90;;;;;;5029021;28;20112;-59
2022/11/05 07:19:01;;;;;;;11.25;9.07;;;7.70;99.90;;;;;;5029597;28;20033;-60
2022/11/05 07:21:27;;;;;;;11.90;8.70;;;7.80;99.90;;;;;;5027394;28;20030;-58
2022/11/05 07:23:53;;;;;;;8.73;7.78;;;7.80;99.90;;;;;;5023528;28;20501;-59
2022/11/05 07:26:18;;;;;;;10.57;8.85;;;7.80;99.90;;;;;;5023875;28;20021;-59
2022/11/05 07:28:44;;;;;;;10.05;9.02;;;7.90;99.90;;;;;;5024906;28;20037;-58
2022/11/05 07:31:09;;;;;;;9.40;8.45;;;8.00;99.90;;;;;;5028999;28;20037;-59
2022/11/05 07:33:35;;;;;;;10.20;9.30;;;8.10;99.90;;;;;;5027707;28;20030;-58
2022/11/05 07:36:01;;;;;;;11.15;9.07;;;8.10;99.90;;;;;;5026066;28;20441;-59
2022/11/05 07:38:26;;;;;;;10.77;9.05;;;8.30;99.90;;;;;;5023482;28;20017;-58
2022/11/05 07:40:52;;;;;;;12.52;8.65;;;8.30;99.90;;;;;;5023326;28;20018;-59
2022/11/05 07:43:18;;;;;;;9.70;8.85;;;8.40;99.90;;;;;;5022964;28;20021;-59
2022/11/05 07:45:44;;;;;;;10.07;8.98;;;8.50;99.90;;;;;;5026704;28;20311;-59
2022/11/05 07:48:10;;;;;;;14.93;9.18;;;8.60;99.90;;;;;;5027886;28;20029;-60
2022/11/05 07:50:36;;;;;;;9.35;8.55;;;8.60;99.90;;;;;;5028131;28;20080;-59
2022/11/05 07:53:10;;;;;;;9.57;8.75;;;8.70;99.90;;;;;;5026081;28;20528;-58
2022/11/05 07:55:36;;;;;;;21.00;9.40;;;8.80;99.90;;;;;;5027484;28;20037;-59
2022/11/05 07:58:02;;;;;;;10.93;9.18;;;9.00;99.90;;;;;;5027531;28;20037;-59
2022/11/05 08:00:29;;;;;;;14.95;9.13;;;9.00;99.90;;;;;;5026217;28;20087;-59
2022/11/05 08:03:04;;;;;;;8.70;7.90;;;9.10;99.90;;;;;;5027533;28;20057;-58
2022/11/05 08:05:33;;;;;;;11.10;9.65;;;9.20;99.90;;;;;;5024492;28;20478;-59
2022/11/05 08:07:59;;;;;;;10.00;8.77;;;9.30;99.90;;;;;;5025005;28;20036;-59
2022/11/05 08:10:26;;;;;;;12.05;9.30;;;9.40;99.90;;;;;;5026702;28;20077;-60
2022/11/05 08:12:52;;;;;;;10.18;9.38;;;9.50;99.90;;;;;;5025702;28;20815;-59
2022/11/05 08:15:19;;;;;;;13.93;12.60;;;9.60;99.90;;;;;;5027144;28;20043;-59
2022/11/05 08:17:45;;;;;;;11.80;10.60;;;9.60;99.90;;;;;;5027061;28;20124;-59
2022/11/05 08:20:11;;;;;;;13.60;11.48;;;9.60;99.90;;;;;;5028542;28;20026;-59
2022/11/05 08:22:42;;;;;;;12.65;11.40;;;9.60;99.90;;;;;;5026761;28;20035;-60
2022/11/05 08:25:07;;;;;;;12.07;10.97;;;9.70;99.90;;;;;;5027423;28;20044;-59
2022/11/05 08:27:33;;;;;;;12.07;10.85;;;9.80;99.90;;;;;;5027852;28;20026;-60
2022/11/05 08:29:59;;;;;;;9.65;8.85;;;9.80;99.90;;;;;;5027626;28;20025;-59
2022/11/05 08:32:24;;;;;;;9.98;8.95;;;9.80;99.90;;;;;;5028741;28;20508;-58
2022/11/05 08:34:50;;;;;;;12.27;9.98;;;9.90;99.90;;;;;;5025224;28;20076;-58
2022/11/05 08:37:15;;;;;;;10.98;9.93;;;10.00;99.90;;;;;;5027763;28;20029;-59
2022/11/05 08:39:41;;;;;;;10.38;9.30;;;10.00;99.90;;;;;;5027224;28;20025;-59
2022/11/05 08:42:06;;;;;;;11.52;9.43;;;10.10;99.90;;;;;;5028150;28;20052;-58
2022/11/05 08:44:32;;;;;;;9.98;8.88;;;10.20;99.90;;;;;;5027450;28;20067;-59
2022/11/05 08:46:58;;;;;;;10.30;9.30;;;10.30;99.90;;;;;;5026937;28;20103;-59
2022/11/05 08:49:24;;;;;;;10.05;9.05;;;10.40;99.90;;;;;;5027809;28;20489;-58
2022/11/05 08:51:49;;;;;;;9.40;8.52;;;10.50;99.90;;;;;;5027180;28;20026;-59
2022/11/05 08:54:15;;;;;;;13.70;8.95;;;10.60;99.90;;;;;;5027592;28;20033;-60
2022/11/05 08:56:40;;;;;;;9.40;8.50;;;10.70;99.90;;;;;;5020659;28;20571;-59
2022/11/05 08:59:06;;;;;;;8.50;7.70;;;10.80;99.90;;;;;;5021824;28;20038;-59
2022/11/05 09:01:33;;;;;;;10.13;8.05;;;10.90;99.90;;;;;;5024696;28;20048;-59
2022/11/05 09:03:58;;;;;;;9.07;8.18;;;11.00;99.90;;;;;;5026198;28;20037;-59
2022/11/05 09:06:24;;;;;;;9.85;8.43;;;11.00;99.90;;;;;;5027427;28;20031;-59
2022/11/05 09:08:50;;;;;;;18.63;9.20;;;11.10;99.90;;;;;;5027047;28;20049;-59
2022/11/05 09:11:16;;;;;;;16.38;8.40;;;11.20;99.90;;;;;;5027750;28;20499;-59
2022/11/05 09:13:42;;;;;;;9.85;7.63;;;11.20;99.90;;;;;;5025213;28;20493;-58
2022/11/05 09:16:20;;;;;;;10.43;8.60;;;11.30;99.90;;;;;;5026642;28;20044;-59
2022/11/05 09:18:46;;;;;;;7.72;6.97;;;11.30;99.90;;;;;;5026920;28;20125;-59
2022/11/05 09:21:11;;;;;;;9.85;8.75;;;11.30;99.90;;;;;;5027215;28;20509;-59
2022/11/05 09:23:38;;;;;;;9.10;7.88;;;11.30;99.90;;;;;;5027634;28;20105;-59
2022/11/05 09:26:03;;;;;;;8.95;8.05;;;11.30;99.90;;;;;;5027000;28;20033;-59
2022/11/05 09:28:31;;;;;;;8.85;7.03;;;11.30;99.90;;;;;;5028838;28;20026;-59
2022/11/05 09:30:56;;;;;;;11.75;8.20;;;11.30;99.90;;;;;;5031111;28;20134;-59
2022/11/05 09:33:24;;;;;;;7.90;7.10;;;11.20;99.90;;;;;;5030572;28;20458;-59
2022/11/05 09:35:50;;;;;;;8.68;7.78;;;11.20;99.90;;;;;;5030354;28;20025;-59
2022/11/05 09:38:16;;;;;;;8.95;8.05;;;11.10;99.90;;;;;;5031013;28;20470;-58
2022/11/05 09:40:59;;;;;;;8.38;7.63;;;11.00;99.90;;;;;;5030431;28;20071;-59
2022/11/05 09:43:43;;;;;;;9.68;8.00;;;11.00;99.90;;;;;;5029844;28;20029;-59
2022/11/05 09:46:22;;;;;;;8.65;7.15;;;11.00;99.90;;;;;;5030574;28;20544;-60
2022/11/05 09:48:54;;;;;;;7.88;7.05;;;10.90;99.90;;;;;;5029048;28;20056;-59
2022/11/05 09:51:20;;;;;;;11.93;8.10;;;10.80;99.90;;;;;;5030621;28;20033;-59
2022/11/05 09:53:47;;;;;;;8.43;7.30;;;10.80;99.90;;;;;;5030386;28;20021;-58
2022/11/05 09:56:35;;;;;;;9.35;8.00;;;10.80;99.90;;;;;;5031594;28;20108;-62
2022/11/05 09:59:21;;;;;;;12.13;7.95;;;10.70;99.90;;;;;;5030439;28;20029;-59
2022/11/05 10:01:48;;;;;;;11.48;7.82;;;10.90;99.90;;;;;;5030531;28;20029;-58
2022/11/05 10:04:21;;;;;;;87.03;12.35;;;10.90;99.90;;;;;;5030518;28;20083;-59
2022/11/05 10:07:00;;;;;;;1999.90;999.90;;;10.90;99.90;;;;;;5030084;28;20025;-58
2022/11/05 10:09:35;;;;;;;1999.90;999.90;;;10.90;99.90;;;;;;5029633;28;20528;-58
2022/11/05 10:12:11;;;;;;;1999.90;999.90;;;10.90;99.90;;;;;;5030511;28;20029;-60
2022/11/05 10:14:47;;;;;;;43.67;41.75;;;10.90;99.90;;;;;;5030915;28;20029;-58
2022/11/05 10:17:25;;;;;;;21.13;19.73;;;10.90;99.90;;;;;;5030420;28;20057;-59
2022/11/05 10:19:58;;;;;;;14.02;13.32;;;10.90;99.90;;;;;;5029605;28;20021;-58
2022/11/05 10:22:24;;;;;;;9.52;7.95;;;11.00;99.90;;;;;;5029375;28;20052;-59
2022/11/05 10:24:50;;;;;;;9.50;8.73;;;10.90;99.90;;;;;;5030323;28;20498;-59
2022/11/05 10:27:26;;;;;;;7.22;3.75;;;10.90;99.90;;;;;;5030480;28;20021;-59
2022/11/05 10:29:51;;;;;;;14.82;9.73;;;11.00;99.90;;;;;;5029360;28;20104;-59
2022/11/05 10:32:35;;;;;;;13.60;9.32;;;10.90;99.90;;;;;;5030634;28;20108;-58
2022/11/05 10:35:04;;;;;;;12.57;9.50;;;11.00;99.90;;;;;;5029587;28;20038;-59
2022/11/05 10:37:32;;;;;;;5.75;2.75;;;11.00;99.90;;;;;;5029294;28;20030;-59
2022/11/05 10:39:58;;;;;;;3.42;1.85;;;11.00;99.90;;;;;;5025535;28;20079;-59
2022/11/05 10:42:45;;;;;;;3.85;3.13;;;10.90;99.90;;;;;;5028581;28;20040;-59
2022/11/05 10:45:29;;;;;;;2.58;1.95;;;10.80;99.90;;;;;;5028584;28;20108;-59
2022/11/05 10:48:14;;;;;;;3.72;2.70;;;10.80;99.90;;;;;;5028369;28;20022;-60
2022/11/05 10:50:42;;;;;;;2.97;2.78;;;10.90;99.90;;;;;;5030217;28;20025;-58
2022/11/05 10:53:21;;;;;;;3.38;2.92;;;11.10;99.90;;;;;;5028267;28;20112;-59
2022/11/05 10:55:50;;;;;;;4.68;3.17;;;11.50;99.90;;;;;;5028990;28;20516;-59
2022/11/05 10:58:15;;;;;;;3.45;3.15;;;11.90;99.90;;;;;;5028515;28;20037;-60
2022/11/05 11:00:48;;;;;;;7.63;2.97;;;12.20;99.90;;;;;;5029259;28;20030;-60
2022/11/05 11:03:29;;;;;;;3.90;3.55;;;12.70;99.90;;;;;;5028811;28;20041;-60
2022/11/05 11:06:18;;;;;;;3.08;2.88;;;13.00;99.90;;;;;;5028861;28;20021;-60
2022/11/05 11:08:46;;;;;;;3.60;3.20;;;13.20;99.90;;;;;;5027042;28;20553;-59
2022/11/05 11:11:24;;;;;;;4.45;3.95;;;13.50;99.90;;;;;;5028688;28;20391;-59
2022/11/05 11:14:05;;;;;;;8.10;3.70;;;13.60;99.90;;;;;;5029312;28;20026;-60
2022/11/05 11:16:39;;;;;;;2.33;2.22;;;13.80;99.90;;;;;;5028340;28;20049;-59
2022/11/05 11:19:24;;;;;;;2.10;1.80;;;13.90;99.90;;;;;;5028095;28;20053;-61
2022/11/05 11:22:02;;;;;;;2.88;2.67;;;13.90;99.90;;;;;;5028039;28;20521;-59
2022/11/05 11:24:29;;;;;;;2.05;1.90;;;13.90;99.90;;;;;;5029276;28;20029;-60
2022/11/05 11:27:02;;;;;;;3.55;2.80;;;13.70;99.90;;;;;;5027946;28;20895;-59
2022/11/05 11:29:29;;;;;;;2.80;2.60;;;13.60;99.90;;;;;;5029452;28;20037;-60
2022/11/05 11:31:58;;;;;;;5.82;3.03;;;13.40;99.90;;;;;;5026508;28;20045;-59
2022/11/05 11:34:33;;;;;;;17.98;2.60;;;13.00;99.90;;;;;;5028955;28;20045;-59
2022/11/05 11:37:08;;;;;;;5.20;2.42;;;12.70;99.90;;;;;;5028982;28;20029;-59
2022/11/05 11:39:36;;;;;;;6.55;3.08;;;12.30;99.90;;;;;;5025826;28;20041;-59
2022/11/05 11:42:10;;;;;;;2.72;2.35;;;12.10;99.90;;;;;;5026451;28;20025;-60
2022/11/05 11:44:44;;;;;;;9.25;3.88;;;11.80;99.90;;;;;;5028670;28;20115;-59
2022/11/05 11:47:14;;;;;;;7.28;2.80;;;11.60;99.90;;;;;;5027397;28;20041;-60
2022/11/05 11:49:50;;;;;;;2.67;2.28;;;11.20;99.90;;;;;;5027824;28;20091;-60
2022/11/05 11:52:27;;;;;;;5.45;2.92;;;11.10;99.90;;;;;;5016777;28;20048;-59
2022/11/05 11:55:12;;;;;;;2.83;2.38;;;10.90;99.90;;;;;;5027489;28;20505;-59
2022/11/05 11:57:48;;;;;;;3.28;2.63;;;10.90;99.90;;;;;;5028013;28;20045;-59
2022/11/05 12:00:15;;;;;;;3.20;2.88;;;10.80;99.90;;;;;;5027706;28;20038;-59
2022/11/05 12:03:07;;;;;;;3.58;3.28;;;10.80;99.90;;;;;;5029159;28;20567;-59
2022/11/05 12:05:54;;;;;;;3.70;3.30;;;10.90;99.90;;;;;;5025551;28;20829;-59
2022/11/05 12:08:28;;;;;;;3.47;3.08;;;11.20;99.90;;;;;;5027991;28;20116;-59
2022/11/05 12:11:19;;;;;;;5.43;3.25;;;11.40;99.90;;;;;;5025636;28;20048;-59
2022/11/05 12:14:08;;;;;;;3.85;3.55;;;11.70;99.90;;;;;;5027059;28;20025;-59
2022/11/05 12:16:46;;;;;;;3.65;2.35;;;12.00;99.90;;;;;;5027184;28;20030;-59
2022/11/05 12:19:20;;;;;;;3.85;2.72;;;12.50;99.90;;;;;;5023897;28;20029;-59
2022/11/05 12:21:49;;;;;;;2.67;2.47;;;12.90;99.90;;;;;;5022515;28;20026;-59
2022/11/05 12:24:37;;;;;;;3.30;2.92;;;13.30;99.90;;;;;;5025099;28;20029;-60
2022/11/05 12:27:12;;;;;;;3.53;3.22;;;13.80;99.90;;;;;;5027217;28;20025;-60
2022/11/05 12:29:54;;;;;;;2.40;2.20;;;14.30;99.90;;;;;;5027121;28;20104;-59
2022/11/05 12:32:31;;;;;;;4.57;1.90;;;14.80;99.90;;;;;;5027572;28;20112;-59
2022/11/05 12:34:57;;;;;;;1.95;1.58;;;15.00;96.20;;;;;;5027066;28;20033;-60
2022/11/05 12:37:29;;;;;;;2.35;1.70;;;15.10;94.00;;;;;;5027184;28;20056;-59
2022/11/05 12:39:55;;;;;;;2.08;1.90;;;15.20;93.20;;;;;;5024936;28;20486;-60
2022/11/05 12:42:23;;;;;;;2.42;1.60;;;15.00;91.40;;;;;;5025694;28;20078;-60
2022/11/05 12:45:21;;;;;;;6.28;1.73;;;14.80;90.40;;;;;;5016571;28;20025;-59
2022/11/05 12:48:06;;;;;;;2.97;2.53;;;14.70;91.80;;;;;;5001492;28;20842;-59
2022/11/05 12:50:43;;;;;;;2.15;1.95;;;14.80;93.10;;;;;;5018219;28;20080;-59
2022/11/05 12:53:35;;;;;;;1.70;1.20;;;14.80;91.60;;;;;;5020905;28;20034;-59
2022/11/05 12:56:09;;;;;;;1.95;1.30;;;14.60;93.70;;;;;;5025842;28;20041;-59
2022/11/05 12:58:43;;;;;;;2.15;1.58;;;14.40;91.70;;;;;;5025366;28;20071;-59
2022/11/05 13:01:34;;;;;;;2.22;1.70;;;14.20;92.30;;;;;;5026383;28;20518;-59
2022/11/05 13:04:10;;;;;;;7.22;2.20;;;14.10;91.20;;;;;;5025296;28;20030;-60
2022/11/05 13:06:39;;;;;;;2.25;1.70;;;13.90;92.30;;;;;;5026178;28;20110;-59
2022/11/05 13:09:29;;;;;;;3.15;1.27;;;13.70;92.70;;;;;;5026364;28;20545;-59
2022/11/05 13:12:04;;;;;;;5.85;3.30;;;13.40;92.70;;;;;;5026459;28;20053;-59
2022/11/05 13:14:47;;;;;;;5.60;3.40;;;13.10;94.20;;;;;;5025585;28;20061;-59
2022/11/05 13:17:15;;;;;;;6.30;3.55;;;12.80;95.40;;;;;;5026874;28;20037;-59
2022/11/05 13:20:00;;;;;;;6.63;4.40;;;12.60;95.90;;;;;;5039030;28;20026;-59
2022/11/05 13:22:42;;;;;;;8.35;4.78;;;12.40;96.80;;;;;;5026731;28;20030;-59
2022/11/05 13:25:24;;;;;;;7.25;5.03;;;12.30;98.30;;;;;;5016837;28;20099;-58
2022/11/05 13:27:52;;;;;;;7.60;4.20;;;12.20;98.10;;;;;;5026943;28;20033;-59
2022/11/05 13:30:29;;;;;;;8.23;4.40;;;12.10;99.30;;;;;;5014617;28;20866;-59
2022/11/05 13:33:04;;;;;;;7.55;5.57;;;12.10;99.40;;;;;;5026395;28;20030;-59
2022/11/05 13:35:36;;;;;;;6.03;5.07;;;11.90;99.60;;;;;;5027815;28;20022;-59
2022/11/05 13:41:13;;;;;;;11.05;6.05;;;11.70;99.90;;;;;;5019794;28;20084;-59
2022/11/05 13:43:46;;;;;;;15.43;5.45;;;11.60;99.90;;;;;;5022879;28;20026;-59
2022/11/05 13:46:28;;;;;;;6.53;5.28;;;11.50;99.90;;;;;;5023819;28;20053;-58
2022/11/05 13:49:05;;;;;;;7.10;5.45;;;11.30;99.90;;;;;;5021918;28;20037;-59
2022/11/05 13:51:46;;;;;;;6.10;5.40;;;11.50;99.90;;;;;;5017649;28;20022;-59